Aviation Digital Data Service (ADDS)

Output produced by METARs form (1245 UTC 15 November 2018)
found at http://www.aviationweather.gov/metar/data/
 
TAF TNCA 151000Z 1512/1618 09018KT 9999 SCT018 
     TEMPO 1512/1612 6000 SHRA BKN015 
     PROB40 
     TEMPO 1604/1612 09020G30KT 4000 TSRA SCT012CB